Historyczne dane pomiarowe

Dodano dane terminowe – wersja testowa.

Dane z okresu 1951-2019

Wersja bazy: 1.34 [2019-03-16, lista zmian], aktualizacja planowana na 2019-04-15

Dane meteo z obszaru Polski uzyskane na podstawie danych udostępnionych przez Instytut Meteorologii i Gospodarki Wodnej – Państwowy Instytut Badawczy.

 

Wybierz Datę:    

       

TemperaturaWilgotnośćWiatrCiśnienieOpadyŚniegCzas trwania zjawisk
 Stacja t tx tn tng RH VA  wxwx mslp ppp RRR   cm mm wxwxwxwxwxwxwx
1956-11-09 -3.4 -1.1 -6.4- 71.0- 3.3 1.0---- 0.0------------
1956-11-08 -2.5 0.3 -4.4- 75.3- 1.3 2.0---- 0.0------------
1956-11-07 -1.4 2.3 -3.3- 82.0- 3.3 3.0---- 0.0------------
1956-11-06 1.8 4.0 -0.7- 90.0- 3.3 6.7---- 0.0------------
1956-11-05 1.8 4.0 -2.8- 88.8- 8.0 2.7---- 0.0------------
1956-11-04 1.9 4.3 -2.1- 81.0- 2.7 0.7---- 0.0------------
1956-11-03 1.3 2.9 -1.8- 84.5- 4.7 0.7---- 0.0------------
1956-11-02 1.2 5.1 -2.1- 94.0- 2.7 0.7---- 0.0------------
1956-11-01 -0.4 1.3 -5.4- 84.0- 7.3 5.3---- 0.2------------
1956-10-31 -4.5 -2.1 -9.1- 78.3- 0.0 2.3---- 0.0------------
1956-10-30 -1.6 2.7 -3.3- 86.8- 8.0 3.7---- 0.0------------
1956-10-29 5.0 10.4 1.9- 82.5- 4.0 1.7---- 6.2------------
1956-10-28 9.0 9.7 8.1- 94.8- 8.0 3.0---- 15.8------------
1956-10-27 9.4 10.9 7.1- 86.8- 7.3 3.0---- 0.0------------
1956-10-26 8.8 10.7 6.4- 85.5- 8.0 1.0---- 0.0------------
1956-10-25 10.0 13.9 5.1- 87.5- 5.7 1.7---- 0.0------------
1956-10-24 9.5 12.9 5.7- 86.0- 7.0 1.3---- 1.3------------
1956-10-23 9.6 11.9 8.1- 78.5- 8.0 1.0---- 0.0------------
1956-10-22 11.7 12.9 9.9- 78.8- 6.3 3.0---- 0.0------------
1956-10-21 11.6 14.9 6.6- 79.5- 3.0 1.3---- 0.0------------
1956-10-20 8.8 11.9 5.7- 89.0- 6.3 1.7---- 0.0------------
1956-10-19 10.2 13.6 7.7- 89.0- 6.3 3.0---- 1.0------------
1956-10-18 9.0 10.9 2.7- 87.8- 7.0 1.3---- 0.8------------
1956-10-17 6.2 13.3 0.7- 84.5- 0.7 0.7---- 0.0------------
1956-10-16 7.1 10.9 1.7- 80.5- 3.7 1.3---- 0.0------------
1956-10-15 6.2 11.9 2.2- 75.5- 1.3 2.0---- 0.0------------
1956-10-14 7.6 10.9 5.2- 72.0- 2.7 7.0---- 0.0------------
1956-10-13 10.4 12.5 8.1- 77.5- 5.3 13.7---- 7.1------------
1956-10-12 10.0 11.9 8.7- 82.0- 8.0 4.0---- 0.0------------
1956-10-11 8.6 10.7 4.9- 80.5- 7.3 4.3---- 0.0------------
1956-10-10 5.3 9.4 -0.3- 73.3- 4.3 2.0---- 0.0------------
1956-10-09 6.2 8.9 0.2- 84.3- 3.3 2.7---- 0.0------------
1956-10-08 5.8 7.9 3.6- 83.3- 7.7 2.7---- 0.3------------
1956-10-07 7.2 7.9 4.9- 86.0- 8.0 15.3---- 16.7------------
1956-10-06 8.0 9.9 5.1- 93.8- 8.0 6.7---- 37.3------------
1956-10-05 10.0 15.4 7.6- 87.0- 5.7 4.3---- 0.2------------
1956-10-04 9.4 12.9 3.2- 89.5- 2.7 0.7---- 0.0------------
1956-10-03 13.4 18.9 9.3- 76.5- 8.0 5.7---- 0.6------------
1956-10-02 16.4 24.9 7.3- 75.5- 1.7 3.0---- 0.0------------
1956-10-01 15.4 22.1 3.6- 73.0- 2.3 2.7---- 0.0------------
1956-09-30 11.8 18.0 8.5- 80.3- 3.7 2.7---- 0.0------------
1956-09-29 16.7 20.9 11.5- 69.0- 4.3 5.3---- 0.0------------
1956-09-28 14.0 19.9 9.0- 84.0- 3.7 1.3---- 0.0------------
1956-09-27 14.8 24.4 5.2- 73.3- 1.3 1.3---- 0.0------------
1956-09-26 11.4 21.9 1.3- 78.8- 0.0 1.0---- 0.0------------
1956-09-25 9.8 18.9 1.8- 75.5- 0.0 1.7---- 0.0------------
1956-09-24 7.0 14.7 0.7- 75.5- 0.0 1.3---- 0.0------------
1956-09-23 9.6 15.5 4.6- 70.8- 1.3 1.7---- 0.0------------
1956-09-22 10.7 18.8 4.1- 83.0- 1.0 0.7---- 0.0------------
1956-09-21 9.8 17.9 3.0- 79.0- 0.3 0.7---- 0.0------------
1956-09-20 10.2 17.4 1.9- 76.5- 3.7 0.0---- 0.0------------
1956-09-19 7.1 14.9 0.4- 84.8- 0.0 0.3---- 0.0------------
1956-09-18 8.3 14.4 5.1- 80.3- 3.0 1.3---- 0.0------------
1956-09-17 9.6 14.4 6.6- 74.5- 3.0 2.7---- 0.0------------
1956-09-16 10.9 13.9 4.6- 70.5- 6.3 7.0---- 0.0------------
1956-09-15 10.3 15.9 4.4- 81.0- 4.3 1.3---- 0.0------------
1956-09-14 10.2 16.4 6.9- 78.0- 0.7 1.7---- 0.0------------
1956-09-13 10.4 14.7 6.9- 79.3- 2.7 2.3---- 2.8------------
1956-09-12 11.8 14.2 8.8- 87.3- 6.0 2.0---- 13.1------------
1956-09-11 12.6 15.5 10.4- 95.8- 5.3 1.0---- 1.7------------
244.2 ms

 

Źródłem pochodzenia danych jest Instytut Meteorologii i Gospodarki Wodnej – Państwowy Instytut Badawczy. Dane Instytutu Meteorologii i Gospodarki Wodnej – Państwowego Instytutu Badawczego zostały przetworzone.

Dane źródłowe można odnaleźć na stronie https://dane.imgw.pl